sensor_id;sensor_type;location;lat;lon;timestamp;pressure;altitude;pressure_sealevel;temperature;humidity
73936;BME280;62287;50.858;0.252;2023-05-01T00:00:18;101650.14;;;17.64;37.06
73936;BME280;62287;50.858;0.252;2023-05-01T00:00:49;101649.45;;;17.61;36.90
73936;BME280;62287;50.858;0.252;2023-05-01T00:01:20;101647.70;;;17.47;36.84
73936;BME280;62287;50.858;0.252;2023-05-01T00:01:51;101647.59;;;17.65;36.84
73936;BME280;62287;50.858;0.252;2023-05-01T00:02:22;101646.71;;;16.88;37.03
73936;BME280;62287;50.858;0.252;2023-05-01T00:02:53;101647.06;;;17.43;36.99
73936;BME280;62287;50.858;0.252;2023-05-01T00:03:23;101648.15;;;17.59;36.92
73936;BME280;62287;50.858;0.252;2023-05-01T00:03:54;101645.02;;;17.81;37.03
73936;BME280;62287;50.858;0.252;2023-05-01T00:04:25;101646.58;;;17.44;36.97
73936;BME280;62287;50.858;0.252;2023-05-01T00:04:56;101645.99;;;17.10;36.85
73936;BME280;62287;50.858;0.252;2023-05-01T00:05:27;101646.42;;;17.63;36.73
73936;BME280;62287;50.858;0.252;2023-05-01T00:05:59;101645.54;;;18.03;36.76
73936;BME280;62287;50.858;0.252;2023-05-01T00:06:30;101644.06;;;17.72;36.73
73936;BME280;62287;50.858;0.252;2023-05-01T00:07:01;101644.81;;;17.68;36.74
73936;BME280;62287;50.858;0.252;2023-05-01T00:07:32;101642.69;;;17.54;36.65
73936;BME280;62287;50.858;0.252;2023-05-01T00:08:03;101643.68;;;17.68;36.73
73936;BME280;62287;50.858;0.252;2023-05-01T00:08:34;101643.70;;;17.33;36.64
73936;BME280;62287;50.858;0.252;2023-05-01T00:09:05;101641.25;;;17.56;36.76
73936;BME280;62287;50.858;0.252;2023-05-01T00:09:35;101641.48;;;17.69;36.64
73936;BME280;62287;50.858;0.252;2023-05-01T00:10:07;101641.64;;;17.51;36.83
73936;BME280;62287;50.858;0.252;2023-05-01T00:10:38;101642.46;;;17.82;36.93
73936;BME280;62287;50.858;0.252;2023-05-01T00:11:09;101639.40;;;17.85;36.92
73936;BME280;62287;50.858;0.252;2023-05-01T00:11:40;101641.46;;;17.15;36.93
73936;BME280;62287;50.858;0.252;2023-05-01T00:12:11;101638.88;;;17.55;36.85
73936;BME280;62287;50.858;0.252;2023-05-01T00:12:42;101638.75;;;17.86;36.90
73936;BME280;62287;50.858;0.252;2023-05-01T00:13:13;101639.70;;;18.02;36.77
73936;BME280;62287;50.858;0.252;2023-05-01T00:13:44;101640.38;;;17.54;36.82
73936;BME280;62287;50.858;0.252;2023-05-01T00:14:15;101639.23;;;17.42;36.89
73936;BME280;62287;50.858;0.252;2023-05-01T00:14:45;101639.88;;;17.11;36.97
73936;BME280;62287;50.858;0.252;2023-05-01T00:15:17;101639.25;;;16.97;36.94
73936;BME280;62287;50.858;0.252;2023-05-01T00:15:47;101638.40;;;17.09;37.14
73936;BME280;62287;50.858;0.252;2023-05-01T00:16:18;101635.64;;;17.29;37.05
73936;BME280;62287;50.858;0.252;2023-05-01T00:16:49;101636.06;;;17.03;36.89
73936;BME280;62287;50.858;0.252;2023-05-01T00:17:20;101636.43;;;17.38;36.92
73936;BME280;62287;50.858;0.252;2023-05-01T00:17:52;101639.00;;;16.85;36.97
73936;BME280;62287;50.858;0.252;2023-05-01T00:18:23;101639.64;;;17.36;36.85
73936;BME280;62287;50.858;0.252;2023-05-01T00:18:54;101638.78;;;17.42;36.83
73936;BME280;62287;50.858;0.252;2023-05-01T00:19:25;101637.62;;;17.44;36.83
73936;BME280;62287;50.858;0.252;2023-05-01T00:19:56;101638.38;;;17.73;36.84
73936;BME280;62287;50.858;0.252;2023-05-01T00:20:28;101635.82;;;17.19;36.71
73936;BME280;62287;50.858;0.252;2023-05-01T00:20:59;101634.22;;;17.12;36.63
73936;BME280;62287;50.858;0.252;2023-05-01T00:21:30;101637.30;;;18.07;36.51
73936;BME280;62287;50.858;0.252;2023-05-01T00:22:01;101635.79;;;17.80;36.19
73936;BME280;62287;50.858;0.252;2023-05-01T00:22:32;101636.45;;;17.45;36.15
73936;BME280;62287;50.858;0.252;2023-05-01T00:23:03;101634.60;;;17.91;36.08
73936;BME280;62287;50.858;0.252;2023-05-01T00:23:34;101634.50;;;17.91;36.02
73936;BME280;62287;50.858;0.252;2023-05-01T00:24:05;101631.75;;;17.86;36.09
73936;BME280;62287;50.858;0.252;2023-05-01T00:24:36;101633.37;;;17.59;36.12
73936;BME280;62287;50.858;0.252;2023-05-01T00:25:07;101631.14;;;17.43;36.26
73936;BME280;62287;50.858;0.252;2023-05-01T00:25:38;101631.27;;;17.55;36.20
73936;BME280;62287;50.858;0.252;2023-05-01T00:26:09;101629.82;;;17.52;36.19
73936;BME280;62287;50.858;0.252;2023-05-01T00:26:40;101630.19;;;17.77;36.24
73936;BME280;62287;50.858;0.252;2023-05-01T00:27:11;101628.62;;;17.79;36.21
73936;BME280;62287;50.858;0.252;2023-05-01T00:27:42;101629.12;;;17.87;36.24
73936;BME280;62287;50.858;0.252;2023-05-01T00:28:13;101627.80;;;17.59;36.37
73936;BME280;62287;50.858;0.252;2023-05-01T00:28:44;101629.46;;;17.27;36.28
73936;BME280;62287;50.858;0.252;2023-05-01T00:29:15;101628.53;;;17.94;36.32
73936;BME280;62287;50.858;0.252;2023-05-01T00:29:46;101625.33;;;18.06;36.33
73936;BME280;62287;50.858;0.252;2023-05-01T00:30:17;101623.96;;;17.98;36.37
73936;BME280;62287;50.858;0.252;2023-05-01T00:30:48;101622.90;;;17.28;36.37
73936;BME280;62287;50.858;0.252;2023-05-01T00:31:19;101622.29;;;17.90;36.29
73936;BME280;62287;50.858;0.252;2023-05-01T00:31:49;101624.38;;;17.60;36.32
73936;BME280;62287;50.858;0.252;2023-05-01T00:32:20;101621.98;;;17.66;36.30
73936;BME280;62287;50.858;0.252;2023-05-01T00:32:51;101621.16;;;17.27;36.19
73936;BME280;62287;50.858;0.252;2023-05-01T00:33:22;101620.51;;;17.52;36.20
73936;BME280;62287;50.858;0.252;2023-05-01T00:33:53;101620.10;;;17.71;36.33
73936;BME280;62287;50.858;0.252;2023-05-01T00:34:24;101620.99;;;17.44;36.35
73936;BME280;62287;50.858;0.252;2023-05-01T00:34:55;101619.32;;;17.26;36.23
73936;BME280;62287;50.858;0.252;2023-05-01T00:35:26;101620.47;;;18.04;36.22
73936;BME280;62287;50.858;0.252;2023-05-01T00:35:58;101620.63;;;17.34;36.30
73936;BME280;62287;50.858;0.252;2023-05-01T00:36:29;101621.61;;;17.30;36.19
73936;BME280;62287;50.858;0.252;2023-05-01T00:37:00;101622.52;;;17.79;36.28
73936;BME280;62287;50.858;0.252;2023-05-01T00:37:31;101620.19;;;17.56;36.41
73936;BME280;62287;50.858;0.252;2023-05-01T00:38:02;101621.62;;;17.66;36.26
73936;BME280;62287;50.858;0.252;2023-05-01T00:38:33;101619.65;;;17.82;36.25
73936;BME280;62287;50.858;0.252;2023-05-01T00:39:04;101619.51;;;17.51;36.38
73936;BME280;62287;50.858;0.252;2023-05-01T00:39:35;101619.95;;;17.12;36.36
73936;BME280;62287;50.858;0.252;2023-05-01T00:40:08;101617.90;;;17.14;36.41
73936;BME280;62287;50.858;0.252;2023-05-01T00:40:42;101617.66;;;17.23;36.33
73936;BME280;62287;50.858;0.252;2023-05-01T00:41:13;101616.06;;;17.57;36.42
73936;BME280;62287;50.858;0.252;2023-05-01T00:41:44;101615.66;;;17.04;36.48
73936;BME280;62287;50.858;0.252;2023-05-01T00:42:15;101616.63;;;17.08;36.49
73936;BME280;62287;50.858;0.252;2023-05-01T00:42:46;101618.39;;;17.33;36.56
73936;BME280;62287;50.858;0.252;2023-05-01T00:43:17;101616.70;;;16.91;36.61
73936;BME280;62287;50.858;0.252;2023-05-01T00:43:48;101616.55;;;18.07;36.34
73936;BME280;62287;50.858;0.252;2023-05-01T00:44:19;101613.85;;;17.74;36.47
73936;BME280;62287;50.858;0.252;2023-05-01T00:44:50;101614.60;;;17.43;36.57
73936;BME280;62287;50.858;0.252;2023-05-01T00:45:21;101615.03;;;17.14;36.53
73936;BME280;62287;50.858;0.252;2023-05-01T00:45:52;101614.27;;;17.81;36.54
73936;BME280;62287;50.858;0.252;2023-05-01T00:46:23;101613.12;;;17.80;36.56
73936;BME280;62287;50.858;0.252;2023-05-01T00:46:54;101612.08;;;17.26;36.87
73936;BME280;62287;50.858;0.252;2023-05-01T00:47:25;101612.23;;;17.01;37.03
73936;BME280;62287;50.858;0.252;2023-05-01T00:47:56;101609.72;;;17.05;36.76
73936;BME280;62287;50.858;0.252;2023-05-01T00:48:27;101609.11;;;17.08;36.63
73936;BME280;62287;50.858;0.252;2023-05-01T00:48:58;101609.01;;;17.69;36.72
73936;BME280;62287;50.858;0.252;2023-05-01T00:49:30;101606.40;;;17.77;36.53
73936;BME280;62287;50.858;0.252;2023-05-01T00:50:01;101607.20;;;17.26;36.68
73936;BME280;62287;50.858;0.252;2023-05-01T00:50:32;101606.18;;;17.16;36.72
73936;BME280;62287;50.858;0.252;2023-05-01T00:51:04;101605.09;;;17.65;36.64
73936;BME280;62287;50.858;0.252;2023-05-01T00:51:37;101603.82;;;17.39;36.60
73936;BME280;62287;50.858;0.252;2023-05-01T00:52:08;101603.23;;;17.45;36.60
73936;BME280;62287;50.858;0.252;2023-05-01T00:52:39;101600.53;;;17.48;36.60
73936;BME280;62287;50.858;0.252;2023-05-01T00:53:10;101602.41;;;17.31;36.69
73936;BME280;62287;50.858;0.252;2023-05-01T00:53:42;101601.37;;;16.97;36.69
73936;BME280;62287;50.858;0.252;2023-05-01T00:54:13;101599.88;;;17.48;36.60
73936;BME280;62287;50.858;0.252;2023-05-01T00:54:44;101598.81;;;17.33;36.77
73936;BME280;62287;50.858;0.252;2023-05-01T00:55:15;101599.04;;;17.40;36.72
73936;BME280;62287;50.858;0.252;2023-05-01T00:55:47;101598.59;;;17.63;36.76
73936;BME280;62287;50.858;0.252;2023-05-01T00:56:18;101597.11;;;17.21;36.77
73936;BME280;62287;50.858;0.252;2023-05-01T00:56:50;101595.53;;;17.19;36.93
73936;BME280;62287;50.858;0.252;2023-05-01T00:57:22;101595.95;;;17.00;36.67
73936;BME280;62287;50.858;0.252;2023-05-01T00:57:53;101595.12;;;16.87;36.72
73936;BME280;62287;50.858;0.252;2023-05-01T00:58:25;101595.46;;;17.12;36.83
73936;BME280;62287;50.858;0.252;2023-05-01T00:58:56;101597.34;;;17.25;36.67
73936;BME280;62287;50.858;0.252;2023-05-01T00:59:27;101595.44;;;17.44;36.70
73936;BME280;62287;50.858;0.252;2023-05-01T00:59:58;101597.89;;;17.23;36.72
73936;BME280;62287;50.858;0.252;2023-05-01T01:00:29;101596.59;;;17.44;36.95
73936;BME280;62287;50.858;0.252;2023-05-01T01:01:00;101596.03;;;16.80;36.85
73936;BME280;62287;50.858;0.252;2023-05-01T01:01:31;101594.71;;;16.88;36.95
73936;BME280;62287;50.858;0.252;2023-05-01T01:02:02;101592.37;;;16.63;36.81
73936;BME280;62287;50.858;0.252;2023-05-01T01:02:33;101594.25;;;17.38;36.67
73936;BME280;62287;50.858;0.252;2023-05-01T01:03:04;101590.96;;;17.25;36.89
73936;BME280;62287;50.858;0.252;2023-05-01T01:03:35;101592.35;;;17.31;36.67
73936;BME280;62287;50.858;0.252;2023-05-01T01:04:06;101590.41;;;17.17;36.90
73936;BME280;62287;50.858;0.252;2023-05-01T01:04:38;101590.30;;;17.25;36.96
73936;BME280;62287;50.858;0.252;2023-05-01T01:05:10;101584.68;;;16.90;36.79
73936;BME280;62287;50.858;0.252;2023-05-01T01:05:50;101584.62;;;16.95;36.75
73936;BME280;62287;50.858;0.252;2023-05-01T01:06:31;101584.45;;;16.95;36.90
73936;BME280;62287;50.858;0.252;2023-05-01T01:07:09;101583.74;;;17.26;36.84
73936;BME280;62287;50.858;0.252;2023-05-01T01:07:48;101582.02;;;17.03;37.15
73936;BME280;62287;50.858;0.252;2023-05-01T01:08:26;101582.03;;;16.85;36.98
73936;BME280;62287;50.858;0.252;2023-05-01T01:09:04;101578.93;;;17.45;36.71
73936;BME280;62287;50.858;0.252;2023-05-01T01:09:47;101580.47;;;16.89;36.86
73936;BME280;62287;50.858;0.252;2023-05-01T01:10:29;101579.84;;;17.24;36.86
73936;BME280;62287;50.858;0.252;2023-05-01T01:11:13;101579.18;;;17.32;36.84
73936;BME280;62287;50.858;0.252;2023-05-01T01:11:54;101574.98;;;16.94;36.66
73936;BME280;62287;50.858;0.252;2023-05-01T01:12:34;101577.31;;;17.34;36.73
73936;BME280;62287;50.858;0.252;2023-05-01T01:13:13;101572.89;;;17.24;36.46
73936;BME280;62287;50.858;0.252;2023-05-01T01:13:55;101570.31;;;17.21;36.51
73936;BME280;62287;50.858;0.252;2023-05-01T01:14:32;101568.53;;;17.51;36.53
73936;BME280;62287;50.858;0.252;2023-05-01T01:15:10;101570.49;;;17.34;36.38
73936;BME280;62287;50.858;0.252;2023-05-01T01:15:46;101568.69;;;17.36;36.62
73936;BME280;62287;50.858;0.252;2023-05-01T01:16:27;101568.09;;;17.00;36.61
73936;BME280;62287;50.858;0.252;2023-05-01T01:17:12;101569.37;;;16.78;36.80
73936;BME280;62287;50.858;0.252;2023-05-01T01:17:50;101570.17;;;16.90;36.70
73936;BME280;62287;50.858;0.252;2023-05-01T01:18:26;101566.95;;;17.19;36.55
73936;BME280;62287;50.858;0.252;2023-05-01T01:19:11;101567.32;;;17.16;36.40
73936;BME280;62287;50.858;0.252;2023-05-01T01:20:06;101566.98;;;17.21;36.39
73936;BME280;62287;50.858;0.252;2023-05-01T01:20:45;101566.14;;;17.86;36.41
73936;BME280;62287;50.858;0.252;2023-05-01T01:21:22;101567.01;;;17.24;36.66
73936;BME280;62287;50.858;0.252;2023-05-01T01:22:03;101566.65;;;16.94;36.54
73936;BME280;62287;50.858;0.252;2023-05-01T01:22:39;101567.13;;;17.30;36.66
73936;BME280;62287;50.858;0.252;2023-05-01T01:23:33;101563.63;;;16.98;36.61
73936;BME280;62287;50.858;0.252;2023-05-01T01:24:20;101565.85;;;17.16;36.66
73936;BME280;62287;50.858;0.252;2023-05-01T01:25:14;101566.70;;;17.14;36.71
73936;BME280;62287;50.858;0.252;2023-05-01T01:26:08;101565.76;;;17.37;36.83
73936;BME280;62287;50.858;0.252;2023-05-01T01:27:26;101564.33;;;16.96;36.92
73936;BME280;62287;50.858;0.252;2023-05-01T01:28:15;101564.19;;;16.74;36.78
73936;BME280;62287;50.858;0.252;2023-05-01T01:30:07;101564.47;;;16.83;36.97
73936;BME280;62287;50.858;0.252;2023-05-01T01:31:20;101563.20;;;17.38;36.85
73936;BME280;62287;50.858;0.252;2023-05-01T01:31:59;101560.12;;;16.89;36.78
73936;BME280;62287;50.858;0.252;2023-05-01T01:32:57;101560.29;;;17.22;36.66
73936;BME280;62287;50.858;0.252;2023-05-01T01:33:48;101559.52;;;17.16;36.66
73936;BME280;62287;50.858;0.252;2023-05-01T01:34:24;101558.18;;;16.92;36.91
73936;BME280;62287;50.858;0.252;2023-05-01T01:35:00;101559.13;;;16.95;36.85
73936;BME280;62287;50.858;0.252;2023-05-01T01:35:33;101559.16;;;16.89;36.72
73936;BME280;62287;50.858;0.252;2023-05-01T01:36:10;101560.47;;;17.61;36.70
73936;BME280;62287;50.858;0.252;2023-05-01T01:36:50;101557.87;;;16.78;36.70
73936;BME280;62287;50.858;0.252;2023-05-01T01:37:29;101559.30;;;17.03;36.85
73936;BME280;62287;50.858;0.252;2023-05-01T01:38:06;101559.71;;;17.13;37.04
73936;BME280;62287;50.858;0.252;2023-05-01T01:38:43;101556.50;;;17.10;37.13
73936;BME280;62287;50.858;0.252;2023-05-01T01:39:26;101558.31;;;17.19;37.01
73936;BME280;62287;50.858;0.252;2023-05-01T01:40:02;101555.11;;;16.95;36.89
73936;BME280;62287;50.858;0.252;2023-05-01T01:40:54;101555.56;;;17.42;36.83
73936;BME280;62287;50.858;0.252;2023-05-01T01:41:30;101551.34;;;16.95;36.90
73936;BME280;62287;50.858;0.252;2023-05-01T01:42:05;101552.48;;;17.37;36.85
73936;BME280;62287;50.858;0.252;2023-05-01T01:42:41;101553.04;;;16.98;36.85
73936;BME280;62287;50.858;0.252;2023-05-01T01:43:16;101551.63;;;17.00;36.92
73936;BME280;62287;50.858;0.252;2023-05-01T01:43:54;101548.76;;;17.01;36.86
73936;BME280;62287;50.858;0.252;2023-05-01T01:44:33;101549.26;;;16.94;36.97
73936;BME280;62287;50.858;0.252;2023-05-01T01:45:12;101548.09;;;16.75;36.98
73936;BME280;62287;50.858;0.252;2023-05-01T01:45:47;101544.09;;;17.18;36.93
73936;BME280;62287;50.858;0.252;2023-05-01T01:46:21;101544.09;;;17.35;36.88
73936;BME280;62287;50.858;0.252;2023-05-01T01:46:53;101546.64;;;16.78;36.93
73936;BME280;62287;50.858;0.252;2023-05-01T01:47:28;101547.53;;;16.94;36.85
73936;BME280;62287;50.858;0.252;2023-05-01T01:48:02;101545.05;;;17.07;36.71
73936;BME280;62287;50.858;0.252;2023-05-01T01:48:37;101542.24;;;17.10;36.70
73936;BME280;62287;50.858;0.252;2023-05-01T01:49:15;101543.19;;;16.83;36.84
73936;BME280;62287;50.858;0.252;2023-05-01T01:49:50;101544.14;;;16.83;36.77
73936;BME280;62287;50.858;0.252;2023-05-01T01:50:25;101542.16;;;16.98;36.74
73936;BME280;62287;50.858;0.252;2023-05-01T01:50:58;101542.36;;;16.72;36.82
73936;BME280;62287;50.858;0.252;2023-05-01T01:51:30;101542.56;;;16.51;36.74
73936;BME280;62287;50.858;0.252;2023-05-01T01:52:03;101539.10;;;16.99;36.66
73936;BME280;62287;50.858;0.252;2023-05-01T01:52:37;101539.78;;;17.02;36.60
73936;BME280;62287;50.858;0.252;2023-05-01T01:53:12;101540.07;;;17.14;36.54
73936;BME280;62287;50.858;0.252;2023-05-01T01:53:47;101538.97;;;17.40;36.56
73936;BME280;62287;50.858;0.252;2023-05-01T01:54:26;101541.78;;;16.60;36.70
73936;BME280;62287;50.858;0.252;2023-05-01T01:55:02;101538.82;;;17.31;36.66
73936;BME280;62287;50.858;0.252;2023-05-01T01:55:35;101538.98;;;17.39;36.68
73936;BME280;62287;50.858;0.252;2023-05-01T01:56:09;101537.05;;;17.09;36.62
73936;BME280;62287;50.858;0.252;2023-05-01T01:56:41;101538.73;;;17.14;36.77
73936;BME280;62287;50.858;0.252;2023-05-01T01:57:15;101538.70;;;17.20;36.79
73936;BME280;62287;50.858;0.252;2023-05-01T01:57:49;101538.99;;;17.20;36.81
73936;BME280;62287;50.858;0.252;2023-05-01T01:58:21;101537.64;;;16.73;36.91
73936;BME280;62287;50.858;0.252;2023-05-01T01:58:53;101539.54;;;16.74;36.80
73936;BME280;62287;50.858;0.252;2023-05-01T01:59:24;101537.39;;;16.87;36.66
73936;BME280;62287;50.858;0.252;2023-05-01T01:59:55;101536.89;;;16.81;36.69
73936;BME280;62287;50.858;0.252;2023-05-01T02:00:28;101536.88;;;17.06;36.81
73936;BME280;62287;50.858;0.252;2023-05-01T02:01:00;101536.72;;;16.25;36.88
73936;BME280;62287;50.858;0.252;2023-05-01T02:01:32;101535.25;;;16.98;36.95
73936;BME280;62287;50.858;0.252;2023-05-01T02:02:04;101535.65;;;16.96;36.70
73936;BME280;62287;50.858;0.252;2023-05-01T02:02:38;101527.82;;;17.35;36.61
73936;BME280;62287;50.858;0.252;2023-05-01T02:03:09;101530.66;;;17.05;36.52
73936;BME280;62287;50.858;0.252;2023-05-01T02:03:43;101532.15;;;16.73;36.84
73936;BME280;62287;50.858;0.252;2023-05-01T02:04:15;101527.34;;;16.48;36.67
73936;BME280;62287;50.858;0.252;2023-05-01T02:04:49;101524.76;;;17.24;36.64
73936;BME280;62287;50.858;0.252;2023-05-01T02:05:21;101527.70;;;16.78;36.71
73936;BME280;62287;50.858;0.252;2023-05-01T02:05:54;101522.73;;;16.85;36.64
73936;BME280;62287;50.858;0.252;2023-05-01T02:06:26;101523.55;;;17.39;36.49
73936;BME280;62287;50.858;0.252;2023-05-01T02:06:59;101522.01;;;16.94;36.53
73936;BME280;62287;50.858;0.252;2023-05-01T02:07:31;101522.99;;;17.24;36.67
73936;BME280;62287;50.858;0.252;2023-05-01T02:08:03;101523.84;;;16.86;36.69
73936;BME280;62287;50.858;0.252;2023-05-01T02:08:35;101521.69;;;16.92;36.56
73936;BME280;62287;50.858;0.252;2023-05-01T02:09:08;101523.00;;;17.08;36.48
73936;BME280;62287;50.858;0.252;2023-05-01T02:09:40;101523.04;;;17.04;36.51
73936;BME280;62287;50.858;0.252;2023-05-01T02:10:12;101523.87;;;17.35;36.50
73936;BME280;62287;50.858;0.252;2023-05-01T02:10:44;101526.49;;;17.09;36.47
73936;BME280;62287;50.858;0.252;2023-05-01T02:11:18;101526.37;;;17.29;36.64
73936;BME280;62287;50.858;0.252;2023-05-01T02:11:51;101523.21;;;16.61;36.58
73936;BME280;62287;50.858;0.252;2023-05-01T02:12:24;101522.99;;;17.06;36.52
73936;BME280;62287;50.858;0.252;2023-05-01T02:12:57;101521.72;;;16.49;36.61
73936;BME280;62287;50.858;0.252;2023-05-01T02:13:29;101521.74;;;16.69;36.54
73936;BME280;62287;50.858;0.252;2023-05-01T02:14:01;101522.72;;;16.77;36.55
73936;BME280;62287;50.858;0.252;2023-05-01T02:14:32;101520.19;;;17.39;36.55
73936;BME280;62287;50.858;0.252;2023-05-01T02:15:05;101520.60;;;16.47;36.53
73936;BME280;62287;50.858;0.252;2023-05-01T02:15:37;101521.43;;;17.36;36.55
73936;BME280;62287;50.858;0.252;2023-05-01T02:16:10;101522.17;;;17.47;36.36
73936;BME280;62287;50.858;0.252;2023-05-01T02:16:43;101521.10;;;17.32;36.48
73936;BME280;62287;50.858;0.252;2023-05-01T02:17:14;101519.82;;;16.87;36.59
73936;BME280;62287;50.858;0.252;2023-05-01T02:17:47;101520.07;;;17.30;36.49
73936;BME280;62287;50.858;0.252;2023-05-01T02:18:21;101518.37;;;16.61;36.52
73936;BME280;62287;50.858;0.252;2023-05-01T02:18:53;101518.77;;;16.31;36.75
73936;BME280;62287;50.858;0.252;2023-05-01T02:19:25;101516.45;;;16.61;36.50
73936;BME280;62287;50.858;0.252;2023-05-01T02:19:57;101517.38;;;17.32;36.46
73936;BME280;62287;50.858;0.252;2023-05-01T02:20:29;101518.06;;;16.73;36.39
73936;BME280;62287;50.858;0.252;2023-05-01T02:21:01;101518.40;;;17.48;36.42
73936;BME280;62287;50.858;0.252;2023-05-01T02:21:33;101518.16;;;17.30;36.48
73936;BME280;62287;50.858;0.252;2023-05-01T02:22:07;101517.50;;;16.94;36.51
73936;BME280;62287;50.858;0.252;2023-05-01T02:22:39;101515.67;;;16.73;36.65
73936;BME280;62287;50.858;0.252;2023-05-01T02:23:11;101518.03;;;17.13;36.68
73936;BME280;62287;50.858;0.252;2023-05-01T02:23:42;101516.12;;;17.20;36.45
73936;BME280;62287;50.858;0.252;2023-05-01T02:24:13;101515.24;;;16.63;36.49
73936;BME280;62287;50.858;0.252;2023-05-01T02:24:45;101513.02;;;17.18;36.58
73936;BME280;62287;50.858;0.252;2023-05-01T02:25:17;101514.18;;;17.55;36.32
73936;BME280;62287;50.858;0.252;2023-05-01T02:25:49;101512.40;;;17.31;36.51
73936;BME280;62287;50.858;0.252;2023-05-01T02:26:25;101513.59;;;16.81;36.51
73936;BME280;62287;50.858;0.252;2023-05-01T02:26:59;101513.33;;;17.10;36.65
73936;BME280;62287;50.858;0.252;2023-05-01T02:27:35;101511.87;;;16.93;36.53
73936;BME280;62287;50.858;0.252;2023-05-01T02:28:10;101515.40;;;17.51;36.41
73936;BME280;62287;50.858;0.252;2023-05-01T02:28:42;101517.86;;;17.49;36.32
73936;BME280;62287;50.858;0.252;2023-05-01T02:29:13;101515.18;;;16.69;36.67
73936;BME280;62287;50.858;0.252;2023-05-01T02:29:44;101516.86;;;16.94;36.56
73936;BME280;62287;50.858;0.252;2023-05-01T02:30:16;101515.02;;;17.00;36.50
73936;BME280;62287;50.858;0.252;2023-05-01T02:30:47;101516.04;;;17.54;36.42
73936;BME280;62287;50.858;0.252;2023-05-01T02:31:18;101514.73;;;17.18;36.29
73936;BME280;62287;50.858;0.252;2023-05-01T02:31:49;101513.85;;;16.98;36.45
73936;BME280;62287;50.858;0.252;2023-05-01T02:32:20;101513.12;;;17.10;36.40
73936;BME280;62287;50.858;0.252;2023-05-01T02:32:51;101512.59;;;17.15;36.35
73936;BME280;62287;50.858;0.252;2023-05-01T02:33:22;101511.09;;;16.96;36.36
73936;BME280;62287;50.858;0.252;2023-05-01T02:33:53;101512.54;;;17.21;36.53
73936;BME280;62287;50.858;0.252;2023-05-01T02:34:24;101509.79;;;16.37;36.61
73936;BME280;62287;50.858;0.252;2023-05-01T02:34:55;101515.28;;;16.55;36.84
73936;BME280;62287;50.858;0.252;2023-05-01T02:35:26;101512.58;;;16.89;36.86
73936;BME280;62287;50.858;0.252;2023-05-01T02:35:57;101513.80;;;16.48;36.84
73936;BME280;62287;50.858;0.252;2023-05-01T02:36:28;101513.70;;;16.53;36.87
73936;BME280;62287;50.858;0.252;2023-05-01T02:36:58;101512.62;;;16.66;36.83
73936;BME280;62287;50.858;0.252;2023-05-01T02:37:30;101513.51;;;16.98;36.79
73936;BME280;62287;50.858;0.252;2023-05-01T02:38:01;101514.96;;;16.16;37.01
73936;BME280;62287;50.858;0.252;2023-05-01T02:38:32;101513.83;;;16.83;36.89
73936;BME280;62287;50.858;0.252;2023-05-01T02:39:03;101512.39;;;16.96;36.81
73936;BME280;62287;50.858;0.252;2023-05-01T02:39:35;101512.49;;;16.89;36.86
73936;BME280;62287;50.858;0.252;2023-05-01T02:40:07;101511.90;;;16.24;36.75
73936;BME280;62287;50.858;0.252;2023-05-01T02:40:38;101510.32;;;16.95;36.72
73936;BME280;62287;50.858;0.252;2023-05-01T02:41:10;101512.02;;;16.43;36.86
73936;BME280;62287;50.858;0.252;2023-05-01T02:41:42;101511.91;;;16.41;36.89
73936;BME280;62287;50.858;0.252;2023-05-01T02:42:15;101511.51;;;16.78;36.88
73936;BME280;62287;50.858;0.252;2023-05-01T02:42:48;101511.49;;;16.70;36.96
73936;BME280;62287;50.858;0.252;2023-05-01T02:43:21;101510.53;;;16.09;37.16
73936;BME280;62287;50.858;0.252;2023-05-01T02:43:57;101511.35;;;16.28;37.03
73936;BME280;62287;50.858;0.252;2023-05-01T02:44:34;101511.45;;;16.38;37.01
73936;BME280;62287;50.858;0.252;2023-05-01T02:45:13;101511.38;;;16.95;36.84
73936;BME280;62287;50.858;0.252;2023-05-01T02:45:49;101508.73;;;16.81;36.93
73936;BME280;62287;50.858;0.252;2023-05-01T02:46:22;101506.95;;;16.90;36.84
73936;BME280;62287;50.858;0.252;2023-05-01T02:46:54;101507.68;;;16.75;36.87
73936;BME280;62287;50.858;0.252;2023-05-01T02:47:27;101504.61;;;16.66;36.98
73936;BME280;62287;50.858;0.252;2023-05-01T02:48:01;101506.10;;;16.55;36.77
73936;BME280;62287;50.858;0.252;2023-05-01T02:48:35;101506.08;;;16.78;36.86
73936;BME280;62287;50.858;0.252;2023-05-01T02:49:07;101507.61;;;17.01;36.76
73936;BME280;62287;50.858;0.252;2023-05-01T02:49:40;101509.12;;;16.92;36.87
73936;BME280;62287;50.858;0.252;2023-05-01T02:50:12;101506.09;;;16.94;36.71
73936;BME280;62287;50.858;0.252;2023-05-01T02:50:44;101509.42;;;16.90;36.76
73936;BME280;62287;50.858;0.252;2023-05-01T02:51:16;101508.27;;;16.95;36.76
73936;BME280;62287;50.858;0.252;2023-05-01T02:51:48;101505.35;;;16.69;36.71
73936;BME280;62287;50.858;0.252;2023-05-01T02:52:20;101505.39;;;16.98;36.75
73936;BME280;62287;50.858;0.252;2023-05-01T02:52:52;101506.63;;;16.36;36.86
73936;BME280;62287;50.858;0.252;2023-05-01T02:53:23;101506.22;;;16.44;36.93
73936;BME280;62287;50.858;0.252;2023-05-01T02:53:54;101507.02;;;16.45;36.92
73936;BME280;62287;50.858;0.252;2023-05-01T02:54:26;101507.17;;;16.50;36.90
73936;BME280;62287;50.858;0.252;2023-05-01T02:54:57;101507.94;;;16.65;36.99
73936;BME280;62287;50.858;0.252;2023-05-01T02:55:28;101508.86;;;16.78;36.94
73936;BME280;62287;50.858;0.252;2023-05-01T02:56:00;101509.82;;;16.83;36.84
73936;BME280;62287;50.858;0.252;2023-05-01T02:56:32;101507.64;;;16.30;36.74
73936;BME280;62287;50.858;0.252;2023-05-01T02:57:03;101507.23;;;16.83;36.90
73936;BME280;62287;50.858;0.252;2023-05-01T02:57:34;101506.32;;;16.72;36.86